sensor_id;sensor_type;location;lat;lon;timestamp;temperature;humidity
14401;DHT22;7285;50.894;5.462;2023-10-31T00:00:57;10.40;99.90
14401;DHT22;7285;50.894;5.462;2023-10-31T00:03:24;10.40;99.90
14401;DHT22;7285;50.894;5.462;2023-10-31T00:05:52;10.40;99.90
14401;DHT22;7285;50.894;5.462;2023-10-31T00:08:19;10.40;99.90
14401;DHT22;7285;50.894;5.462;2023-10-31T00:10:47;10.30;99.90
14401;DHT22;7285;50.894;5.462;2023-10-31T00:13:15;10.30;99.90
14401;DHT22;7285;50.894;5.462;2023-10-31T00:15:42;10.30;99.90
14401;DHT22;7285;50.894;5.462;2023-10-31T00:18:09;10.30;99.90
14401;DHT22;7285;50.894;5.462;2023-10-31T00:20:36;10.30;99.90
14401;DHT22;7285;50.894;5.462;2023-10-31T00:23:03;10.40;99.90
14401;DHT22;7285;50.894;5.462;2023-10-31T00:25:30;10.40;99.90
14401;DHT22;7285;50.894;5.462;2023-10-31T00:27:57;10.30;99.90
14401;DHT22;7285;50.894;5.462;2023-10-31T00:30:26;10.30;99.90
14401;DHT22;7285;50.894;5.462;2023-10-31T00:32:53;10.40;99.90
14401;DHT22;7285;50.894;5.462;2023-10-31T00:35:20;10.40;99.90
14401;DHT22;7285;50.894;5.462;2023-10-31T00:37:47;10.30;99.90
14401;DHT22;7285;50.894;5.462;2023-10-31T00:40:14;10.30;99.90
14401;DHT22;7285;50.894;5.462;2023-10-31T00:42:42;10.30;99.90
14401;DHT22;7285;50.894;5.462;2023-10-31T00:45:10;10.20;99.90
14401;DHT22;7285;50.894;5.462;2023-10-31T00:47:38;10.20;99.90
14401;DHT22;7285;50.894;5.462;2023-10-31T00:50:06;10.20;99.90
14401;DHT22;7285;50.894;5.462;2023-10-31T00:52:34;10.10;99.90
14401;DHT22;7285;50.894;5.462;2023-10-31T00:55:01;10.20;99.90
14401;DHT22;7285;50.894;5.462;2023-10-31T00:57:29;10.20;99.90
14401;DHT22;7285;50.894;5.462;2023-10-31T00:59:56;10.10;99.90
14401;DHT22;7285;50.894;5.462;2023-10-31T01:02:23;10.20;99.90
14401;DHT22;7285;50.894;5.462;2023-10-31T01:04:52;10.20;99.90
14401;DHT22;7285;50.894;5.462;2023-10-31T01:07:19;10.20;99.90
14401;DHT22;7285;50.894;5.462;2023-10-31T01:09:46;10.20;99.90
14401;DHT22;7285;50.894;5.462;2023-10-31T01:12:13;10.20;99.90
14401;DHT22;7285;50.894;5.462;2023-10-31T01:14:40;10.30;99.90
14401;DHT22;7285;50.894;5.462;2023-10-31T01:17:07;10.20;99.90
14401;DHT22;7285;50.894;5.462;2023-10-31T01:19:34;10.30;99.90
14401;DHT22;7285;50.894;5.462;2023-10-31T01:22:03;10.30;99.90
14401;DHT22;7285;50.894;5.462;2023-10-31T01:24:30;10.30;99.90
14401;DHT22;7285;50.894;5.462;2023-10-31T01:26:57;10.30;99.90
14401;DHT22;7285;50.894;5.462;2023-10-31T01:29:24;10.30;99.90
14401;DHT22;7285;50.894;5.462;2023-10-31T01:31:51;10.30;99.90
14401;DHT22;7285;50.894;5.462;2023-10-31T01:34:18;10.30;99.90
14401;DHT22;7285;50.894;5.462;2023-10-31T01:36:45;10.30;99.90
14401;DHT22;7285;50.894;5.462;2023-10-31T01:39:13;10.30;99.90
14401;DHT22;7285;50.894;5.462;2023-10-31T01:41:41;10.30;99.90
14401;DHT22;7285;50.894;5.462;2023-10-31T01:44:08;10.30;99.90
14401;DHT22;7285;50.894;5.462;2023-10-31T01:46:35;10.30;99.90
14401;DHT22;7285;50.894;5.462;2023-10-31T01:49:02;10.30;99.90
14401;DHT22;7285;50.894;5.462;2023-10-31T01:51:29;10.30;99.90
14401;DHT22;7285;50.894;5.462;2023-10-31T01:53:56;10.30;99.90
14401;DHT22;7285;50.894;5.462;2023-10-31T01:56:25;10.30;99.90
14401;DHT22;7285;50.894;5.462;2023-10-31T01:58:53;10.40;99.90
14401;DHT22;7285;50.894;5.462;2023-10-31T02:01:20;10.40;99.90
14401;DHT22;7285;50.894;5.462;2023-10-31T02:03:47;10.40;99.90
14401;DHT22;7285;50.894;5.462;2023-10-31T02:06:13;10.40;99.90
14401;DHT22;7285;50.894;5.462;2023-10-31T02:08:40;10.40;99.90
14401;DHT22;7285;50.894;5.462;2023-10-31T02:11:07;10.40;99.90
14401;DHT22;7285;50.894;5.462;2023-10-31T02:13:37;10.40;99.90
14401;DHT22;7285;50.894;5.462;2023-10-31T02:16:04;10.40;99.90
14401;DHT22;7285;50.894;5.462;2023-10-31T02:18:31;10.40;99.90
14401;DHT22;7285;50.894;5.462;2023-10-31T02:20:59;10.40;99.90
14401;DHT22;7285;50.894;5.462;2023-10-31T02:23:27;10.40;99.90
14401;DHT22;7285;50.894;5.462;2023-10-31T02:25:54;10.50;99.90
14401;DHT22;7285;50.894;5.462;2023-10-31T02:28:21;10.50;99.90
14401;DHT22;7285;50.894;5.462;2023-10-31T02:30:53;10.50;99.90
14401;DHT22;7285;50.894;5.462;2023-10-31T02:33:20;10.50;99.90
14401;DHT22;7285;50.894;5.462;2023-10-31T02:35:47;10.50;99.90
14401;DHT22;7285;50.894;5.462;2023-10-31T02:38:14;10.50;99.90
14401;DHT22;7285;50.894;5.462;2023-10-31T02:40:43;10.50;99.90
14401;DHT22;7285;50.894;5.462;2023-10-31T02:43:11;10.50;99.90
14401;DHT22;7285;50.894;5.462;2023-10-31T02:45:39;10.50;99.90
14401;DHT22;7285;50.894;5.462;2023-10-31T02:48:07;10.50;99.90
14401;DHT22;7285;50.894;5.462;2023-10-31T02:50:35;10.60;99.90
14401;DHT22;7285;50.894;5.462;2023-10-31T02:53:02;10.60;99.90
14401;DHT22;7285;50.894;5.462;2023-10-31T02:55:29;10.50;99.90
14401;DHT22;7285;50.894;5.462;2023-10-31T02:57:58;10.60;99.90
14401;DHT22;7285;50.894;5.462;2023-10-31T03:00:25;10.60;99.90
14401;DHT22;7285;50.894;5.462;2023-10-31T03:02:53;10.60;99.90
14401;DHT22;7285;50.894;5.462;2023-10-31T03:05:20;10.60;99.90
14401;DHT22;7285;50.894;5.462;2023-10-31T03:07:47;10.60;99.90
14401;DHT22;7285;50.894;5.462;2023-10-31T03:10:15;10.60;99.90
14401;DHT22;7285;50.894;5.462;2023-10-31T03:12:42;10.60;99.90
14401;DHT22;7285;50.894;5.462;2023-10-31T03:15:12;10.60;99.90
14401;DHT22;7285;50.894;5.462;2023-10-31T03:17:39;10.50;99.90
14401;DHT22;7285;50.894;5.462;2023-10-31T03:20:06;10.40;99.90
14401;DHT22;7285;50.894;5.462;2023-10-31T03:22:34;10.40;99.90
14401;DHT22;7285;50.894;5.462;2023-10-31T03:25:02;10.40;99.90
14401;DHT22;7285;50.894;5.462;2023-10-31T03:27:29;10.40;99.90
14401;DHT22;7285;50.894;5.462;2023-10-31T03:29:57;10.40;99.90
14401;DHT22;7285;50.894;5.462;2023-10-31T03:32:26;10.40;99.90
14401;DHT22;7285;50.894;5.462;2023-10-31T03:34:53;10.40;99.90
14401;DHT22;7285;50.894;5.462;2023-10-31T03:37:20;10.30;99.90
14401;DHT22;7285;50.894;5.462;2023-10-31T03:39:46;10.30;99.90
14401;DHT22;7285;50.894;5.462;2023-10-31T03:42:14;10.40;99.90
14401;DHT22;7285;50.894;5.462;2023-10-31T03:44:42;10.40;99.90
14401;DHT22;7285;50.894;5.462;2023-10-31T03:47:09;10.40;99.90
14401;DHT22;7285;50.894;5.462;2023-10-31T03:49:40;10.40;99.90
14401;DHT22;7285;50.894;5.462;2023-10-31T03:52:07;10.50;99.90
14401;DHT22;7285;50.894;5.462;2023-10-31T03:54:33;10.50;99.90
14401;DHT22;7285;50.894;5.462;2023-10-31T03:57:00;10.50;99.90
14401;DHT22;7285;50.894;5.462;2023-10-31T03:59:27;10.50;99.90
14401;DHT22;7285;50.894;5.462;2023-10-31T04:01:54;10.50;99.90
14401;DHT22;7285;50.894;5.462;2023-10-31T04:04:21;10.50;99.90
14401;DHT22;7285;50.894;5.462;2023-10-31T04:06:50;10.50;99.90
14401;DHT22;7285;50.894;5.462;2023-10-31T04:09:17;10.50;99.90
14401;DHT22;7285;50.894;5.462;2023-10-31T04:11:45;10.50;99.90
14401;DHT22;7285;50.894;5.462;2023-10-31T04:14:13;10.50;99.90
14401;DHT22;7285;50.894;5.462;2023-10-31T04:16:42;10.50;99.90
14401;DHT22;7285;50.894;5.462;2023-10-31T04:19:12;10.50;99.90
14401;DHT22;7285;50.894;5.462;2023-10-31T04:21:39;10.50;99.90
14401;DHT22;7285;50.894;5.462;2023-10-31T04:24:08;10.50;99.90
14401;DHT22;7285;50.894;5.462;2023-10-31T04:26:35;10.50;99.90
14401;DHT22;7285;50.894;5.462;2023-10-31T04:29:02;10.50;99.90
14401;DHT22;7285;50.894;5.462;2023-10-31T04:31:29;10.50;99.90
14401;DHT22;7285;50.894;5.462;2023-10-31T04:33:56;10.50;99.90
14401;DHT22;7285;50.894;5.462;2023-10-31T04:36:23;10.50;99.90
14401;DHT22;7285;50.894;5.462;2023-10-31T04:38:50;10.50;99.90
14401;DHT22;7285;50.894;5.462;2023-10-31T04:41:18;10.50;99.90
14401;DHT22;7285;50.894;5.462;2023-10-31T04:43:45;10.40;99.90
14401;DHT22;7285;50.894;5.462;2023-10-31T04:46:12;10.40;99.90
14401;DHT22;7285;50.894;5.462;2023-10-31T04:48:39;10.40;99.90
14401;DHT22;7285;50.894;5.462;2023-10-31T04:51:06;10.30;99.90
14401;DHT22;7285;50.894;5.462;2023-10-31T04:53:33;10.30;99.90
14401;DHT22;7285;50.894;5.462;2023-10-31T04:56:00;10.20;99.90
14401;DHT22;7285;50.894;5.462;2023-10-31T04:58:29;10.30;99.90
14401;DHT22;7285;50.894;5.462;2023-10-31T05:00:58;10.20;99.90
14401;DHT22;7285;50.894;5.462;2023-10-31T05:03:25;10.10;99.90
14401;DHT22;7285;50.894;5.462;2023-10-31T05:05:52;10.10;99.90
14401;DHT22;7285;50.894;5.462;2023-10-31T05:08:19;10.10;99.90
14401;DHT22;7285;50.894;5.462;2023-10-31T05:10:46;10.10;99.90
14401;DHT22;7285;50.894;5.462;2023-10-31T05:13:13;10.00;99.90
14401;DHT22;7285;50.894;5.462;2023-10-31T05:15:42;10.00;99.90
14401;DHT22;7285;50.894;5.462;2023-10-31T05:18:09;10.00;99.90
14401;DHT22;7285;50.894;5.462;2023-10-31T05:20:36;10.00;99.90
14401;DHT22;7285;50.894;5.462;2023-10-31T05:23:03;10.00;99.90
14401;DHT22;7285;50.894;5.462;2023-10-31T05:25:30;9.90;99.90
14401;DHT22;7285;50.894;5.462;2023-10-31T05:27:57;9.90;99.90
14401;DHT22;7285;50.894;5.462;2023-10-31T05:30:25;9.80;99.90
14401;DHT22;7285;50.894;5.462;2023-10-31T05:32:54;9.80;99.90
14401;DHT22;7285;50.894;5.462;2023-10-31T05:35:21;9.80;99.90
14401;DHT22;7285;50.894;5.462;2023-10-31T05:37:49;9.80;99.90
14401;DHT22;7285;50.894;5.462;2023-10-31T05:40:16;9.80;99.90
14401;DHT22;7285;50.894;5.462;2023-10-31T05:42:43;9.80;99.90
14401;DHT22;7285;50.894;5.462;2023-10-31T05:45:10;9.70;99.90
14401;DHT22;7285;50.894;5.462;2023-10-31T05:47:37;9.70;99.90
14401;DHT22;7285;50.894;5.462;2023-10-31T05:50:07;9.70;99.90
14401;DHT22;7285;50.894;5.462;2023-10-31T05:52:34;9.60;99.90
14401;DHT22;7285;50.894;5.462;2023-10-31T05:55:02;9.60;99.90
14401;DHT22;7285;50.894;5.462;2023-10-31T05:57:29;9.60;99.90
14401;DHT22;7285;50.894;5.462;2023-10-31T05:59:56;9.60;99.90
14401;DHT22;7285;50.894;5.462;2023-10-31T06:02:23;9.50;99.90
14401;DHT22;7285;50.894;5.462;2023-10-31T06:04:50;9.60;99.90
14401;DHT22;7285;50.894;5.462;2023-10-31T06:07:18;9.50;99.90
14401;DHT22;7285;50.894;5.462;2023-10-31T06:09:45;9.50;99.90
14401;DHT22;7285;50.894;5.462;2023-10-31T06:12:12;9.50;99.90
14401;DHT22;7285;50.894;5.462;2023-10-31T06:14:39;9.50;99.90
14401;DHT22;7285;50.894;5.462;2023-10-31T06:17:06;9.50;99.90
14401;DHT22;7285;50.894;5.462;2023-10-31T06:19:34;9.50;99.90
14401;DHT22;7285;50.894;5.462;2023-10-31T06:22:01;9.50;99.90
14401;DHT22;7285;50.894;5.462;2023-10-31T06:24:29;9.50;99.90
14401;DHT22;7285;50.894;5.462;2023-10-31T06:26:56;9.50;99.90
14401;DHT22;7285;50.894;5.462;2023-10-31T06:29:23;9.50;99.90
14401;DHT22;7285;50.894;5.462;2023-10-31T06:31:50;9.40;99.90
14401;DHT22;7285;50.894;5.462;2023-10-31T06:34:17;9.40;99.90
14401;DHT22;7285;50.894;5.462;2023-10-31T06:36:44;9.40;99.90
14401;DHT22;7285;50.894;5.462;2023-10-31T06:39:11;9.40;99.90
14401;DHT22;7285;50.894;5.462;2023-10-31T06:41:40;9.40;99.90
14401;DHT22;7285;50.894;5.462;2023-10-31T06:44:07;9.40;99.90
14401;DHT22;7285;50.894;5.462;2023-10-31T06:46:34;9.40;99.90
14401;DHT22;7285;50.894;5.462;2023-10-31T06:49:01;9.40;99.90
14401;DHT22;7285;50.894;5.462;2023-10-31T06:51:28;9.40;99.90
14401;DHT22;7285;50.894;5.462;2023-10-31T06:53:55;9.40;99.90
14401;DHT22;7285;50.894;5.462;2023-10-31T06:56:22;9.40;99.90
14401;DHT22;7285;50.894;5.462;2023-10-31T06:58:51;9.40;99.90
14401;DHT22;7285;50.894;5.462;2023-10-31T07:01:18;9.40;99.90
14401;DHT22;7285;50.894;5.462;2023-10-31T07:03:45;9.40;99.90
14401;DHT22;7285;50.894;5.462;2023-10-31T07:06:12;9.40;99.90
14401;DHT22;7285;50.894;5.462;2023-10-31T07:08:38;9.40;99.90
14401;DHT22;7285;50.894;5.462;2023-10-31T07:11:05;9.40;99.90
14401;DHT22;7285;50.894;5.462;2023-10-31T07:13:32;9.40;99.90
14401;DHT22;7285;50.894;5.462;2023-10-31T07:16:01;9.50;99.90
14401;DHT22;7285;50.894;5.462;2023-10-31T07:18:28;9.50;99.90
14401;DHT22;7285;50.894;5.462;2023-10-31T07:20:55;9.50;99.90
14401;DHT22;7285;50.894;5.462;2023-10-31T07:23:21;9.50;99.90
14401;DHT22;7285;50.894;5.462;2023-10-31T07:25:50;9.60;99.90
14401;DHT22;7285;50.894;5.462;2023-10-31T07:28:17;9.60;99.90
14401;DHT22;7285;50.894;5.462;2023-10-31T07:30:44;9.70;99.90
14401;DHT22;7285;50.894;5.462;2023-10-31T07:33:13;9.80;99.90
14401;DHT22;7285;50.894;5.462;2023-10-31T07:35:39;9.80;99.90
14401;DHT22;7285;50.894;5.462;2023-10-31T07:38:06;9.90;99.90
14401;DHT22;7285;50.894;5.462;2023-10-31T07:40:33;10.00;99.90
14401;DHT22;7285;50.894;5.462;2023-10-31T07:43:00;10.10;99.90
14401;DHT22;7285;50.894;5.462;2023-10-31T07:45:27;10.10;99.90
14401;DHT22;7285;50.894;5.462;2023-10-31T07:47:54;10.20;99.90
14401;DHT22;7285;50.894;5.462;2023-10-31T07:50:22;10.20;99.90
14401;DHT22;7285;50.894;5.462;2023-10-31T07:52:49;10.30;99.90
14401;DHT22;7285;50.894;5.462;2023-10-31T07:55:16;10.30;99.90
14401;DHT22;7285;50.894;5.462;2023-10-31T07:57:43;10.40;99.90
14401;DHT22;7285;50.894;5.462;2023-10-31T08:00:11;10.50;99.90
14401;DHT22;7285;50.894;5.462;2023-10-31T08:02:38;10.60;99.90
14401;DHT22;7285;50.894;5.462;2023-10-31T08:05:06;10.70;99.90
14401;DHT22;7285;50.894;5.462;2023-10-31T08:07:35;10.80;99.90
14401;DHT22;7285;50.894;5.462;2023-10-31T08:10:02;10.80;99.90
14401;DHT22;7285;50.894;5.462;2023-10-31T08:12:29;10.90;99.90
14401;DHT22;7285;50.894;5.462;2023-10-31T08:14:56;10.90;99.90
14401;DHT22;7285;50.894;5.462;2023-10-31T08:17:24;10.90;99.90
14401;DHT22;7285;50.894;5.462;2023-10-31T08:19:51;11.00;99.90
14401;DHT22;7285;50.894;5.462;2023-10-31T08:22:19;11.10;99.90
14401;DHT22;7285;50.894;5.462;2023-10-31T08:24:48;11.20;99.90
14401;DHT22;7285;50.894;5.462;2023-10-31T08:27:15;11.30;99.90
14401;DHT22;7285;50.894;5.462;2023-10-31T08:29:42;11.40;99.90
14401;DHT22;7285;50.894;5.462;2023-10-31T08:32:09;11.30;99.90
14401;DHT22;7285;50.894;5.462;2023-10-31T08:34:35;11.30;99.90
14401;DHT22;7285;50.894;5.462;2023-10-31T08:37:03;11.40;99.90
14401;DHT22;7285;50.894;5.462;2023-10-31T08:39:30;11.60;99.90
14401;DHT22;7285;50.894;5.462;2023-10-31T08:42:03;11.70;99.90
14401;DHT22;7285;50.894;5.462;2023-10-31T08:44:30;11.80;99.90
14401;DHT22;7285;50.894;5.462;2023-10-31T08:46:59;11.90;99.90
14401;DHT22;7285;50.894;5.462;2023-10-31T08:49:25;11.90;99.90
14401;DHT22;7285;50.894;5.462;2023-10-31T08:51:52;11.90;99.90
14401;DHT22;7285;50.894;5.462;2023-10-31T08:54:19;12.00;99.90
14401;DHT22;7285;50.894;5.462;2023-10-31T08:56:48;12.00;99.90
14401;DHT22;7285;50.894;5.462;2023-10-31T08:59:17;11.80;99.90
14401;DHT22;7285;50.894;5.462;2023-10-31T09:01:44;11.90;99.90
14401;DHT22;7285;50.894;5.462;2023-10-31T09:04:11;11.90;99.90
14401;DHT22;7285;50.894;5.462;2023-10-31T09:06:38;12.00;99.90
14401;DHT22;7285;50.894;5.462;2023-10-31T09:09:05;12.20;99.90
14401;DHT22;7285;50.894;5.462;2023-10-31T09:11:32;12.20;99.90
14401;DHT22;7285;50.894;5.462;2023-10-31T09:13:59;12.20;99.90
14401;DHT22;7285;50.894;5.462;2023-10-31T09:16:32;12.20;99.90
14401;DHT22;7285;50.894;5.462;2023-10-31T09:18:59;12.10;99.90
14401;DHT22;7285;50.894;5.462;2023-10-31T09:21:26;12.10;99.90
14401;DHT22;7285;50.894;5.462;2023-10-31T09:23:52;12.10;99.90
14401;DHT22;7285;50.894;5.462;2023-10-31T09:26:20;12.10;99.90
14401;DHT22;7285;50.894;5.462;2023-10-31T09:28:47;12.10;99.90
14401;DHT22;7285;50.894;5.462;2023-10-31T09:31:15;12.30;99.90
14401;DHT22;7285;50.894;5.462;2023-10-31T09:33:44;12.30;99.90
14401;DHT22;7285;50.894;5.462;2023-10-31T09:36:12;12.50;99.90
14401;DHT22;7285;50.894;5.462;2023-10-31T09:38:39;12.70;99.90
14401;DHT22;7285;50.894;5.462;2023-10-31T09:41:06;12.90;99.90
14401;DHT22;7285;50.894;5.462;2023-10-31T09:43:33;13.00;99.90
14401;DHT22;7285;50.894;5.462;2023-10-31T09:46:02;13.30;99.90
14401;DHT22;7285;50.894;5.462;2023-10-31T09:48:29;13.50;99.90
14401;DHT22;7285;50.894;5.462;2023-10-31T09:50:58;13.40;99.90
14401;DHT22;7285;50.894;5.462;2023-10-31T09:53:25;13.20;99.90
14401;DHT22;7285;50.894;5.462;2023-10-31T09:55:53;13.00;99.90
14401;DHT22;7285;50.894;5.462;2023-10-31T09:58:22;12.90;99.90
14401;DHT22;7285;50.894;5.462;2023-10-31T10:00:49;12.70;99.90
14401;DHT22;7285;50.894;5.462;2023-10-31T10:03:17;12.60;99.90
14401;DHT22;7285;50.894;5.462;2023-10-31T10:05:44;12.50;99.90
14401;DHT22;7285;50.894;5.462;2023-10-31T10:08:14;12.50;99.90
14401;DHT22;7285;50.894;5.462;2023-10-31T10:10:42;12.70;99.90
14401;DHT22;7285;50.894;5.462;2023-10-31T10:13:09;12.90;99.90
14401;DHT22;7285;50.894;5.462;2023-10-31T10:15:44;13.00;99.90
14401;DHT22;7285;50.894;5.462;2023-10-31T10:18:24;13.10;99.90
14401;DHT22;7285;50.894;5.462;2023-10-31T10:20:55;13.00;99.90
14401;DHT22;7285;50.894;5.462;2023-10-31T10:23:24;12.90;99.90
14401;DHT22;7285;50.894;5.462;2023-10-31T10:25:51;12.90;99.90
14401;DHT22;7285;50.894;5.462;2023-10-31T10:28:19;12.80;99.90
14401;DHT22;7285;50.894;5.462;2023-10-31T10:30:46;12.70;99.90
14401;DHT22;7285;50.894;5.462;2023-10-31T10:33:14;12.70;99.90
14401;DHT22;7285;50.894;5.462;2023-10-31T10:35:41;12.80;99.90
14401;DHT22;7285;50.894;5.462;2023-10-31T10:38:11;13.40;99.90
14401;DHT22;7285;50.894;5.462;2023-10-31T10:40:43;13.50;99.90
14401;DHT22;7285;50.894;5.462;2023-10-31T10:43:13;13.40;99.90
14401;DHT22;7285;50.894;5.462;2023-10-31T10:45:43;13.40;99.90
14401;DHT22;7285;50.894;5.462;2023-10-31T10:48:13;13.60;99.90
14401;DHT22;7285;50.894;5.462;2023-10-31T10:50:45;13.90;99.90
14401;DHT22;7285;50.894;5.462;2023-10-31T10:53:20;13.90;99.90
14401;DHT22;7285;50.894;5.462;2023-10-31T10:55:54;13.80;99.90
14401;DHT22;7285;50.894;5.462;2023-10-31T10:58:27;13.60;99.90
14401;DHT22;7285;50.894;5.462;2023-10-31T11:00:59;13.70;99.90
14401;DHT22;7285;50.894;5.462;2023-10-31T11:03:26;13.70;99.90
14401;DHT22;7285;50.894;5.462;2023-10-31T11:05:57;13.70;99.90
14401;DHT22;7285;50.894;5.462;2023-10-31T11:08:24;13.80;99.90
14401;DHT22;7285;50.894;5.462;2023-10-31T11:10:55;13.70;99.90
14401;DHT22;7285;50.894;5.462;2023-10-31T11:13:23;13.70;99.90
14401;DHT22;7285;50.894;5.462;2023-10-31T11:15:55;13.70;99.90
14401;DHT22;7285;50.894;5.462;2023-10-31T11:18:24;13.80;99.90
14401;DHT22;7285;50.894;5.462;2023-10-31T11:20:52;13.90;99.90
14401;DHT22;7285;50.894;5.462;2023-10-31T11:23:19;14.10;99.90
14401;DHT22;7285;50.894;5.462;2023-10-31T11:25:50;14.10;99.90
14401;DHT22;7285;50.894;5.462;2023-10-31T11:28:20;14.40;99.90
14401;DHT22;7285;50.894;5.462;2023-10-31T11:30:49;14.20;99.90
14401;DHT22;7285;50.894;5.462;2023-10-31T11:33:19;14.10;99.90
14401;DHT22;7285;50.894;5.462;2023-10-31T11:35:50;14.20;99.90
14401;DHT22;7285;50.894;5.462;2023-10-31T11:38:30;14.20;99.90
14401;DHT22;7285;50.894;5.462;2023-10-31T11:41:00;14.20;99.90
14401;DHT22;7285;50.894;5.462;2023-10-31T11:43:52;14.10;99.90
14401;DHT22;7285;50.894;5.462;2023-10-31T11:46:20;14.10;99.90
14401;DHT22;7285;50.894;5.462;2023-10-31T11:48:50;13.90;99.90
14401;DHT22;7285;50.894;5.462;2023-10-31T11:51:18;13.90;99.90
14401;DHT22;7285;50.894;5.462;2023-10-31T11:53:45;14.30;99.90
14401;DHT22;7285;50.894;5.462;2023-10-31T11:56:12;14.70;99.90
14401;DHT22;7285;50.894;5.462;2023-10-31T11:58:40;14.70;99.90
14401;DHT22;7285;50.894;5.462;2023-10-31T12:01:09;14.50;99.90
14401;DHT22;7285;50.894;5.462;2023-10-31T12:03:40;14.30;99.90
14401;DHT22;7285;50.894;5.462;2023-10-31T12:06:08;14.20;99.90
14401;DHT22;7285;50.894;5.462;2023-10-31T12:08:37;14.00;99.90
14401;DHT22;7285;50.894;5.462;2023-10-31T12:11:06;13.90;99.90
14401;DHT22;7285;50.894;5.462;2023-10-31T12:13:34;13.90;99.90
14401;DHT22;7285;50.894;5.462;2023-10-31T12:16:02;13.90;99.90
14401;DHT22;7285;50.894;5.462;2023-10-31T12:18:33;13.90;99.90
14401;DHT22;7285;50.894;5.462;2023-10-31T12:21:00;14.10;99.90
14401;DHT22;7285;50.894;5.462;2023-10-31T12:23:28;14.50;99.90
14401;DHT22;7285;50.894;5.462;2023-10-31T12:25:55;14.50;99.90
14401;DHT22;7285;50.894;5.462;2023-10-31T12:28:25;14.40;99.90
14401;DHT22;7285;50.894;5.462;2023-10-31T12:30:54;14.30;99.90
14401;DHT22;7285;50.894;5.462;2023-10-31T12:33:26;14.20;99.90
14401;DHT22;7285;50.894;5.462;2023-10-31T12:35:56;14.40;99.90
14401;DHT22;7285;50.894;5.462;2023-10-31T12:38:24;14.30;99.90
14401;DHT22;7285;50.894;5.462;2023-10-31T12:40:52;14.30;99.90
14401;DHT22;7285;50.894;5.462;2023-10-31T12:43:22;14.20;99.90
14401;DHT22;7285;50.894;5.462;2023-10-31T12:45:49;14.10;99.90
14401;DHT22;7285;50.894;5.462;2023-10-31T12:48:15;14.00;99.90
14401;DHT22;7285;50.894;5.462;2023-10-31T12:50:44;14.00;99.90
14401;DHT22;7285;50.894;5.462;2023-10-31T12:53:11;13.90;99.90
14401;DHT22;7285;50.894;5.462;2023-10-31T12:55:50;13.90;99.90
14401;DHT22;7285;50.894;5.462;2023-10-31T12:58:20;13.90;99.90
14401;DHT22;7285;50.894;5.462;2023-10-31T13:00:49;13.90;99.90
14401;DHT22;7285;50.894;5.462;2023-10-31T13:03:17;13.80;99.90
14401;DHT22;7285;50.894;5.462;2023-10-31T13:05:47;13.70;99.90
14401;DHT22;7285;50.894;5.462;2023-10-31T13:08:14;13.70;99.90
14401;DHT22;7285;50.894;5.462;2023-10-31T13:10:41;13.60;99.90
14401;DHT22;7285;50.894;5.462;2023-10-31T13:13:09;13.50;99.90
14401;DHT22;7285;50.894;5.462;2023-10-31T13:15:37;13.40;99.90
14401;DHT22;7285;50.894;5.462;2023-10-31T13:18:04;13.30;99.90
14401;DHT22;7285;50.894;5.462;2023-10-31T13:20:31;13.30;99.90
14401;DHT22;7285;50.894;5.462;2023-10-31T13:23:00;13.40;99.90
14401;DHT22;7285;50.894;5.462;2023-10-31T13:25:28;13.30;99.90
14401;DHT22;7285;50.894;5.462;2023-10-31T13:27:57;13.40;99.90
14401;DHT22;7285;50.894;5.462;2023-10-31T13:30:24;13.40;99.90
14401;DHT22;7285;50.894;5.462;2023-10-31T13:32:51;13.30;99.90
14401;DHT22;7285;50.894;5.462;2023-10-31T13:35:18;13.20;99.90
14401;DHT22;7285;50.894;5.462;2023-10-31T13:37:45;13.20;99.90
14401;DHT22;7285;50.894;5.462;2023-10-31T13:40:14;13.10;99.90
14401;DHT22;7285;50.894;5.462;2023-10-31T13:42:41;13.00;99.90
14401;DHT22;7285;50.894;5.462;2023-10-31T13:45:08;13.00;99.90
14401;DHT22;7285;50.894;5.462;2023-10-31T13:47:35;12.90;99.90
14401;DHT22;7285;50.894;5.462;2023-10-31T13:50:04;12.80;99.90
14401;DHT22;7285;50.894;5.462;2023-10-31T13:52:32;12.90;99.90
14401;DHT22;7285;50.894;5.462;2023-10-31T13:54:59;12.90;99.90
14401;DHT22;7285;50.894;5.462;2023-10-31T13:57:27;12.80;99.90
14401;DHT22;7285;50.894;5.462;2023-10-31T13:59:54;12.80;99.90
14401;DHT22;7285;50.894;5.462;2023-10-31T14:02:21;12.70;99.90
14401;DHT22;7285;50.894;5.462;2023-10-31T14:04:48;12.60;99.90
14401;DHT22;7285;50.894;5.462;2023-10-31T14:07:21;12.60;99.90
14401;DHT22;7285;50.894;5.462;2023-10-31T14:09:48;12.60;99.90
14401;DHT22;7285;50.894;5.462;2023-10-31T14:12:15;12.50;99.90
14401;DHT22;7285;50.894;5.462;2023-10-31T14:14:44;12.40;99.90
14401;DHT22;7285;50.894;5.462;2023-10-31T14:17:13;12.40;99.90
14401;DHT22;7285;50.894;5.462;2023-10-31T14:19:42;12.30;99.90
14401;DHT22;7285;50.894;5.462;2023-10-31T14:22:09;12.20;99.90
14401;DHT22;7285;50.894;5.462;2023-10-31T14:24:36;12.10;99.90
14401;DHT22;7285;50.894;5.462;2023-10-31T14:27:03;12.10;99.90
14401;DHT22;7285;50.894;5.462;2023-10-31T14:29:30;12.00;99.90
14401;DHT22;7285;50.894;5.462;2023-10-31T14:32:05;11.90;99.90
14401;DHT22;7285;50.894;5.462;2023-10-31T14:34:32;11.90;99.90
14401;DHT22;7285;50.894;5.462;2023-10-31T14:36:59;11.90;99.90
14401;DHT22;7285;50.894;5.462;2023-10-31T14:39:26;11.90;99.90
14401;DHT22;7285;50.894;5.462;2023-10-31T14:41:53;11.90;99.90
14401;DHT22;7285;50.894;5.462;2023-10-31T14:44:20;11.80;99.90
14401;DHT22;7285;50.894;5.462;2023-10-31T14:46:47;11.80;99.90
14401;DHT22;7285;50.894;5.462;2023-10-31T14:49:16;11.80;99.90
14401;DHT22;7285;50.894;5.462;2023-10-31T14:51:43;11.80;99.90
14401;DHT22;7285;50.894;5.462;2023-10-31T14:54:10;11.80;99.90
14401;DHT22;7285;50.894;5.462;2023-10-31T14:56:37;11.80;99.90
14401;DHT22;7285;50.894;5.462;2023-10-31T14:59:05;11.80;99.90
14401;DHT22;7285;50.894;5.462;2023-10-31T15:01:32;11.80;99.90
14401;DHT22;7285;50.894;5.462;2023-10-31T15:03:59;11.80;99.90
14401;DHT22;7285;50.894;5.462;2023-10-31T15:06:28;11.80;99.90
14401;DHT22;7285;50.894;5.462;2023-10-31T15:08:55;11.90;99.90
14401;DHT22;7285;50.894;5.462;2023-10-31T15:11:22;12.00;99.90
14401;DHT22;7285;50.894;5.462;2023-10-31T15:13:49;12.00;99.90
14401;DHT22;7285;50.894;5.462;2023-10-31T15:16:15;12.00;99.90
14401;DHT22;7285;50.894;5.462;2023-10-31T15:18:42;11.90;99.90
14401;DHT22;7285;50.894;5.462;2023-10-31T15:21:09;12.00;99.90
14401;DHT22;7285;50.894;5.462;2023-10-31T15:23:38;12.10;99.90
14401;DHT22;7285;50.894;5.462;2023-10-31T15:26:05;12.10;99.90
14401;DHT22;7285;50.894;5.462;2023-10-31T15:28:38;12.10;99.90
14401;DHT22;7285;50.894;5.462;2023-10-31T15:31:06;12.20;99.90
14401;DHT22;7285;50.894;5.462;2023-10-31T15:33:33;12.10;99.90
14401;DHT22;7285;50.894;5.462;2023-10-31T15:36:00;12.00;99.90
14401;DHT22;7285;50.894;5.462;2023-10-31T15:38:27;12.00;99.90
14401;DHT22;7285;50.894;5.462;2023-10-31T15:40:55;12.00;99.90
14401;DHT22;7285;50.894;5.462;2023-10-31T15:43:22;11.90;99.90
14401;DHT22;7285;50.894;5.462;2023-10-31T15:45:49;11.90;99.90
14401;DHT22;7285;50.894;5.462;2023-10-31T15:48:16;11.90;99.90
14401;DHT22;7285;50.894;5.462;2023-10-31T15:50:43;11.90;99.90